Strona główna
METAR-TAF:

METAR-TAF

Lotnisko :

Monbetsu, Japonia

Szerokość geograficzna: 44-15N, Długość geograficzna: 143-32E, wysokość: 6 m

Aktualna obserwacja pogody

Raport powstał 49 minut temu, godzina 00:00 UTC
Wiatr 5 kt od południowy zachód, zmienny między południe i zachód
Temperatura 18°C
Wilgotność 56%
Ciśnienie 1018 hPa
Widzialność 10 km lub więcej
Mało chmury na wysokości 3000 ft

METAR: RJEB 260000Z 23005KT 180V260 9999 FEW030 18/09 Q1018

czas: 09:49 (00:49 UTC)


TAF: brakujący

Obserwacja i prognoza pogody dla ponad 4000 lotnisk (raport METAR i TAF).

Dostępne stacje oznaczono żółtymi i czerwonymi punktami na mapie.

Najedź kursorem aby zobaczyć nazwę stacji.

Kliknij aby zobaczyć obserwacje i prognozy pogody.

Aby zmienić mapę: kliknij na zielony przycisk z czarnym krzyżykiem, aby powiększyć; na zielony przycisk z myślnikiem, aby pomniejszyć; na zielone strzałki, aby przejść do map sąsiednich.


METAR-TAF: